Time;durP1;ratioP1;P1;durP2;ratioP2;P2;SDS_P1;SDS_P2;PMS_P1;PMS_P2;Temp;Humidity;BMP_temperature;BMP_pressure;BME280_temperature;BME280_humidity;BME280_pressure;Samples;Min_cycle;Max_cycle;Signal;HPM_P1;HPM_P2
2022/09/15 00:02:23;;;;;;;19.15;11.45;;;;;;;13.25;83.71;98882.97;1698338;84;25778;-67
2022/09/15 00:04:49;;;;;;;22.62;13.03;;;;;;;13.24;83.67;98886.82;1698681;84;28039;-67
2022/09/15 00:07:15;;;;;;;20.60;12.80;;;;;;;13.22;83.85;98882.33;1698693;84;25683;-67
2022/09/15 00:09:42;;;;;;;20.60;13.13;;;;;;;13.21;83.95;98874.77;1698830;84;25496;-67
2022/09/15 00:12:08;;;;;;;19.52;12.18;;;;;;;13.22;84.27;98882.33;1685207;83;25626;-67
2022/09/15 00:14:34;;;;;;;17.37;12.53;;;;;;;13.20;84.11;98873.19;1692876;84;25671;-67
2022/09/15 00:17:00;;;;;;;17.05;12.47;;;;;;;13.21;84.09;98867.17;1686018;83;27337;-67
2022/09/15 00:19:26;;;;;;;16.07;12.55;;;;;;;13.19;83.97;98867.53;1688091;84;25690;-67
2022/09/15 00:21:52;;;;;;;18.60;12.37;;;;;;;13.17;83.97;98864.40;1696885;83;25679;-67
2022/09/15 00:24:18;;;;;;;18.27;12.15;;;;;;;13.18;83.91;98859.77;1698090;84;25767;-67
2022/09/15 00:26:44;;;;;;;21.65;13.28;;;;;;;13.16;84.07;98858.77;1698701;84;25405;-67
2022/09/15 00:29:11;;;;;;;20.35;12.82;;;;;;;13.15;83.90;98854.48;1698905;84;27324;-67
2022/09/15 00:31:39;;;;;;;21.05;14.45;;;;;;;13.14;84.04;98856.97;1698841;84;26297;-67
2022/09/15 00:34:06;;;;;;;18.25;12.43;;;;;;;13.14;84.37;98865.11;1698772;84;25744;-67
2022/09/15 00:36:33;;;;;;;21.60;13.25;;;;;;;13.14;84.25;98860.27;1697271;83;25622;-67
2022/09/15 00:38:59;;;;;;;18.40;13.35;;;;;;;13.11;84.41;98853.64;1698973;84;25607;-67
2022/09/15 00:41:25;;;;;;;22.35;13.20;;;;;;;13.11;84.48;98860.43;1697784;83;27296;-67
2022/09/15 00:43:59;;;;;;;24.00;14.30;;;;;;;13.08;84.40;98857.84;1698217;84;25872;-67
2022/09/15 00:46:39;;;;;;;19.95;13.80;;;;;;;13.09;84.96;98861.34;1698955;84;25466;-68
2022/09/15 00:49:25;;;;;;;22.52;15.43;;;;;;;13.08;84.94;98868.70;1698515;83;25718;-66
2022/09/15 00:52:02;;;;;;;18.70;13.68;;;;;;;13.08;85.30;98874.13;1698008;84;25590;-66
2022/09/15 00:54:37;;;;;;;26.87;16.62;;;;;;;13.07;85.35;98876.62;1690662;83;27334;-67
2022/09/15 00:57:14;;;;;;;22.15;15.05;;;;;;;13.08;85.72;98874.13;1697710;83;25765;-67
2022/09/15 00:59:43;;;;;;;25.23;16.07;;;;;;;13.09;86.07;98877.62;1697461;83;26204;-67
2022/09/15 01:02:24;;;;;;;27.87;16.85;;;;;;;13.09;86.16;98864.05;1699257;84;26285;-68
2022/09/15 01:04:53;;;;;;;27.02;16.87;;;;;;;13.11;86.32;98865.86;1696741;84;25644;-67
2022/09/15 01:07:54;;;;;;;26.10;17.48;;;;;;;13.13;86.62;98866.28;1699223;84;27299;-68
2022/09/15 01:10:34;;;;;;;25.37;17.17;;;;;;;13.16;86.73;98871.55;1699002;84;25790;-68
2022/09/15 01:13:05;;;;;;;23.25;15.85;;;;;;;13.19;87.05;98868.89;1698858;84;25575;-68
2022/09/15 01:15:52;;;;;;;23.47;17.15;;;;;;;13.20;86.98;98862.33;1699000;84;25661;-68
2022/09/15 01:18:45;;;;;;;28.57;16.30;;;;;;;13.22;86.94;98846.45;1697509;84;25480;-68
2022/09/15 01:21:37;;;;;;;27.67;17.10;;;;;;;13.23;86.87;98849.39;1697615;84;28087;-67
2022/09/15 01:24:39;;;;;;;24.10;16.75;;;;;;;13.23;87.04;98848.03;1698024;83;25566;-67
2022/09/15 01:27:30;;;;;;;27.35;18.15;;;;;;;13.24;87.25;98842.80;1697494;84;25448;-68
2022/09/15 01:30:05;;;;;;;30.52;18.00;;;;;;;13.26;87.53;98846.52;1698910;84;25728;-67
2022/09/15 01:33:03;;;;;;;26.33;17.30;;;;;;;13.25;87.47;98842.25;1699117;84;25667;-67
2022/09/15 01:35:56;;;;;;;29.35;18.00;;;;;;;13.26;87.64;98839.72;1688635;84;27857;-67
2022/09/15 01:38:48;;;;;;;27.58;16.97;;;;;;;13.26;87.90;98837.01;1668746;85;25850;-67
2022/09/15 01:41:29;;;;;;;27.35;18.82;;;;;;;13.28;87.88;98838.81;1674933;85;25490;-67
2022/09/15 01:44:15;;;;;;;27.20;18.62;;;;;;;13.30;88.10;98830.27;1681563;85;26295;-67
2022/09/15 01:46:49;;;;;;;24.77;16.67;;;;;;;13.30;88.17;98826.20;1678722;84;25714;-67
2022/09/15 01:49:19;;;;;;;25.37;18.42;;;;;;;13.33;88.25;98826.31;1594835;87;27970;-67
2022/09/15 01:51:50;;;;;;;23.62;17.17;;;;;;;13.35;88.40;98825.38;1617530;87;25783;-68
2022/09/15 01:54:28;;;;;;;25.15;16.42;;;;;;;13.34;88.52;98817.00;1616110;88;25494;-67
2022/09/15 01:56:54;;;;;;;25.68;17.60;;;;;;;13.36;88.66;98820.14;1617696;88;26225;-67
2022/09/15 01:59:20;;;;;;;23.30;17.37;;;;;;;13.34;88.69;98822.44;1621477;87;25409;-67
2022/09/15 02:01:56;;;;;;;29.02;18.05;;;;;;;13.37;88.73;98819.58;1602416;88;28525;-67
2022/09/15 02:04:30;;;;;;;24.63;18.02;;;;;;;13.37;88.81;98824.44;1681469;85;25976;-68
2022/09/15 02:07:43;;;;;;;27.90;17.37;;;;;;;13.39;88.89;98815.92;1674605;84;25678;-67
2022/09/15 02:10:18;;;;;;;27.82;17.82;;;;;;;13.41;88.99;98812.27;1663986;85;25628;-67
2022/09/15 02:13:06;;;;;;;26.25;18.52;;;;;;;13.40;89.08;98807.41;1623799;86;25751;-67
2022/09/15 02:15:41;;;;;;;26.35;17.65;;;;;;;13.41;89.14;98810.33;1604026;87;27350;-68
2022/09/15 02:18:09;;;;;;;26.40;17.02;;;;;;;13.44;89.19;98812.31;1676805;85;25767;-68
2022/09/15 02:20:47;;;;;;;23.32;16.73;;;;;;;13.46;89.27;98803.81;1681632;85;26362;-67
2022/09/15 02:23:30;;;;;;;20.32;15.50;;;;;;;13.47;89.19;98801.31;1681487;85;26240;-68
2022/09/15 02:26:05;;;;;;;20.23;15.25;;;;;;;13.49;89.00;98805.80;1672305;84;25511;-68
2022/09/15 02:28:36;;;;;;;21.70;15.70;;;;;;;13.51;88.87;98806.22;1680397;85;27365;-68
2022/09/15 02:31:06;;;;;;;24.85;15.95;;;;;;;13.52;88.56;98807.80;1681281;84;26139;-68
2022/09/15 02:33:44;;;;;;;26.57;16.82;;;;;;;13.52;88.56;98794.21;1681640;85;25414;-68
2022/09/15 02:36:15;;;;;;;24.98;16.27;;;;;;;13.52;88.70;98802.36;1648626;86;26321;-68
2022/09/15 02:38:47;;;;;;;23.18;16.80;;;;;;;13.53;88.81;98791.69;1695719;84;25606;-68
2022/09/15 02:41:13;;;;;;;27.07;17.20;;;;;;;13.52;88.75;98798.29;1696181;83;27328;-68
2022/09/15 02:43:48;;;;;;;26.02;16.32;;;;;;;13.52;88.87;98792.05;1697540;83;33259;-68
2022/09/15 02:46:18;;;;;;;23.07;15.93;;;;;;;13.51;88.90;98787.20;1675850;84;25616;-68
2022/09/15 02:48:44;;;;;;;26.40;17.60;;;;;;;13.50;88.83;98784.30;1698939;84;25740;-68
2022/09/15 02:51:11;;;;;;;21.68;15.28;;;;;;;13.51;89.04;98777.70;1645116;84;25704;-68
2022/09/15 02:53:37;;;;;;;22.87;16.45;;;;;;;13.51;89.08;98774.98;1647027;87;27342;-68
2022/09/15 02:56:07;;;;;;;24.75;16.10;;;;;;;13.51;89.12;98772.27;1645007;87;27342;-68
2022/09/15 02:58:34;;;;;;;20.92;15.10;;;;;;;13.51;89.08;98766.05;1650006;87;25591;-68
2022/09/15 03:01:06;;;;;;;26.48;14.85;;;;;;;13.52;88.97;98768.96;1652514;85;25769;-68
2022/09/15 03:03:34;;;;;;;22.42;16.15;;;;;;;13.51;88.86;98771.48;1649865;87;25455;-68
2022/09/15 03:06:15;;;;;;;25.95;15.88;;;;;;;13.51;88.84;98774.20;1647899;87;27342;-68
2022/09/15 03:08:53;;;;;;;24.85;17.12;;;;;;;13.51;88.72;98775.56;1650428;87;25883;-68
2022/09/15 03:11:22;;;;;;;21.97;15.78;;;;;;;13.51;89.12;98783.71;1646226;85;25393;-67
2022/09/15 03:13:55;;;;;;;27.45;16.87;;;;;;;13.51;89.19;98785.07;1647520;85;26243;-67
2022/09/15 03:16:22;;;;;;;25.15;16.17;;;;;;;13.51;89.23;98783.13;1704223;83;25520;-67
2022/09/15 03:18:49;;;;;;;23.70;15.83;;;;;;;13.52;89.27;98785.26;1665445;84;27327;-67
2022/09/15 03:21:17;;;;;;;23.10;16.75;;;;;;;13.53;89.30;98784.13;1650326;87;25602;-67
2022/09/15 03:23:44;;;;;;;22.55;16.32;;;;;;;13.53;89.24;98785.48;1650664;85;25643;-67
2022/09/15 03:26:12;;;;;;;21.75;17.60;;;;;;;13.55;89.33;98780.46;1659947;86;25695;-67
2022/09/15 03:28:39;;;;;;;28.25;17.45;;;;;;;13.54;89.35;98778.33;1659978;86;25956;-68
2022/09/15 03:31:07;;;;;;;26.45;17.60;;;;;;;13.52;89.59;98776.56;1658628;85;27348;-68
2022/09/15 03:33:33;;;;;;;23.20;15.38;;;;;;;13.50;89.43;98765.83;1648647;85;25462;-71
2022/09/15 03:36:00;;;;;;;22.65;14.58;;;;;;;13.51;89.57;98759.27;1640686;85;25770;-67
2022/09/15 03:38:26;;;;;;;21.12;15.75;;;;;;;13.50;89.52;98759.84;1669992;85;25628;-67
2022/09/15 03:41:06;;;;;;;27.27;17.52;;;;;;;13.50;89.44;98761.76;1665873;85;25650;-68
2022/09/15 03:43:34;;;;;;;21.00;14.95;;;;;;;13.49;89.65;98765.06;1675502;85;27976;-68
2022/09/15 03:46:00;;;;;;;22.67;15.75;;;;;;;13.48;89.39;98762.12;1680628;84;25787;-68
2022/09/15 03:48:30;;;;;;;22.42;15.32;;;;;;;13.49;89.34;98765.64;1686846;84;25667;-67
2022/09/15 03:50:56;;;;;;;21.80;15.43;;;;;;;13.49;89.20;98765.64;1675344;85;25650;-68
2022/09/15 03:53:23;;;;;;;22.10;15.88;;;;;;;13.49;89.27;98770.49;1675482;85;25469;-68
2022/09/15 03:55:50;;;;;;;21.10;15.28;;;;;;;13.48;89.22;98774.34;1676924;84;27318;-68
2022/09/15 03:58:17;;;;;;;25.30;15.03;;;;;;;13.48;89.16;98774.93;1686576;84;25688;-68
2022/09/15 04:00:45;;;;;;;23.02;15.78;;;;;;;13.47;89.17;98772.80;1673378;84;25483;-68
2022/09/15 04:03:12;;;;;;;20.97;14.80;;;;;;;13.46;89.11;98768.50;1666440;85;25618;-67
2022/09/15 04:05:40;;;;;;;21.00;14.63;;;;;;;13.45;88.95;98777.81;1683809;84;25486;-68
2022/09/15 04:08:11;;;;;;;21.15;15.25;;;;;;;13.45;88.73;98777.81;1667533;84;27305;-67
2022/09/15 04:10:39;;;;;;;22.95;15.60;;;;;;;13.44;88.82;98771.58;1667973;84;25639;-68
2022/09/15 04:13:05;;;;;;;20.95;15.50;;;;;;;13.42;88.95;98768.45;1665110;85;25494;-68
2022/09/15 04:15:32;;;;;;;24.52;16.20;;;;;;;13.41;88.88;98772.89;1689385;83;27765;-68
2022/09/15 04:17:58;;;;;;;22.17;15.85;;;;;;;13.39;89.09;98781.39;1702557;84;25394;-68
2022/09/15 04:20:25;;;;;;;19.15;14.98;;;;;;;13.39;89.14;98783.34;1702453;84;27389;-68
2022/09/15 04:22:51;;;;;;;25.27;16.90;;;;;;;13.39;89.32;98775.19;1678043;85;25415;-68
2022/09/15 04:25:17;;;;;;;23.35;15.65;;;;;;;13.39;89.54;98780.62;1641470;87;26154;-68
2022/09/15 04:27:43;;;;;;;21.85;16.82;;;;;;;13.39;89.63;98785.47;1674984;84;25731;-68
2022/09/15 04:30:11;;;;;;;19.90;16.10;;;;;;;13.40;89.58;98782.17;1702508;84;25460;-68
2022/09/15 04:32:37;;;;;;;25.45;16.45;;;;;;;13.39;89.64;98772.47;1696652;83;27337;-68
2022/09/15 04:35:05;;;;;;;22.73;16.55;;;;;;;13.40;89.57;98773.47;1708769;83;25612;-68
2022/09/15 04:37:32;;;;;;;22.67;16.30;;;;;;;13.41;89.50;98775.60;1670317;85;25429;-68
2022/09/15 04:39:59;;;;;;;24.30;16.25;;;;;;;13.42;89.63;98773.11;1681746;85;27750;-68
2022/09/15 04:42:26;;;;;;;22.73;16.05;;;;;;;13.41;89.69;98767.45;1620596;86;25494;-68
2022/09/15 04:44:53;;;;;;;20.27;15.93;;;;;;;13.40;89.81;98766.68;1604699;88;27366;-67
2022/09/15 04:47:19;;;;;;;22.42;15.68;;;;;;;13.41;89.92;98761.44;1654623;86;27340;-68
2022/09/15 04:49:45;;;;;;;18.90;14.65;;;;;;;13.43;89.86;98749.66;1632087;86;25526;-68
2022/09/15 04:52:12;;;;;;;19.52;14.95;;;;;;;13.42;89.82;98750.80;1647031;86;25810;-68
2022/09/15 04:54:38;;;;;;;21.68;14.95;;;;;;;13.42;89.75;98752.73;1634571;86;25592;-68
2022/09/15 04:57:05;;;;;;;20.50;15.95;;;;;;;13.41;89.69;98758.72;1661295;84;29637;-68
2022/09/15 04:59:32;;;;;;;20.40;16.20;;;;;;;13.40;89.85;98758.53;1673740;84;25598;-68
2022/09/15 05:01:58;;;;;;;20.52;14.78;;;;;;;13.40;90.05;98759.89;1624622;87;25671;-68
2022/09/15 05:04:24;;;;;;;21.02;15.15;;;;;;;13.39;90.18;98759.67;1690028;84;25670;-68
2022/09/15 05:06:51;;;;;;;19.73;15.23;;;;;;;13.40;90.28;98763.97;1644365;86;25579;-67
2022/09/15 05:09:16;;;;;;;19.20;14.45;;;;;;;13.41;90.27;98762.02;1686623;84;28048;-67
2022/09/15 05:11:43;;;;;;;21.52;16.52;;;;;;;13.43;90.25;98762.44;1674104;84;25628;-67
2022/09/15 05:14:10;;;;;;;20.35;14.93;;;;;;;13.44;90.44;98759.36;1683463;84;25594;-68
2022/09/15 05:16:37;;;;;;;20.62;15.23;;;;;;;13.45;90.45;98756.09;1637868;87;25701;-68
2022/09/15 05:19:03;;;;;;;18.23;15.83;;;;;;;13.49;90.47;98764.28;1687771;84;25797;-68
2022/09/15 05:21:30;;;;;;;22.30;15.80;;;;;;;13.49;90.48;98758.27;1673963;83;27316;-68
2022/09/15 05:23:57;;;;;;;23.38;15.00;;;;;;;13.52;90.64;98760.81;1646393;86;25805;-66
2022/09/15 05:26:27;;;;;;;21.27;15.20;;;;;;;13.55;90.76;98766.87;1636279;85;25308;-66
2022/09/15 05:28:56;;;;;;;18.32;15.15;;;;;;;13.56;91.00;98766.52;1641334;86;25735;-66
2022/09/15 05:31:26;;;;;;;24.37;16.52;;;;;;;13.57;90.99;98762.66;1634929;86;25734;-66
2022/09/15 05:33:54;;;;;;;22.87;16.90;;;;;;;13.61;90.96;98768.92;1617466;88;27538;-66
2022/09/15 05:36:24;;;;;;;19.55;15.85;;;;;;;13.63;91.06;98761.77;1662330;84;25662;-66
2022/09/15 05:38:52;;;;;;;26.00;16.15;;;;;;;13.66;91.19;98759.67;1647933;85;25590;-67
2022/09/15 05:41:19;;;;;;;19.37;15.58;;;;;;;13.68;91.25;98768.23;1624153;87;26309;-66
2022/09/15 05:43:48;;;;;;;25.20;15.65;;;;;;;13.72;91.34;98765.56;1644856;87;25755;-68
2022/09/15 05:46:17;;;;;;;20.40;15.32;;;;;;;13.74;91.44;98766.78;1684963;84;27529;-67
2022/09/15 05:48:45;;;;;;;24.27;16.30;;;;;;;13.77;91.54;98774.77;1687771;84;25690;-67
2022/09/15 05:51:13;;;;;;;28.62;17.85;;;;;;;13.82;91.66;98773.08;1686161;84;25694;-67
2022/09/15 05:53:39;;;;;;;27.98;17.45;;;;;;;13.87;91.71;98771.98;1654956;85;26175;-67
2022/09/15 05:56:12;;;;;;;19.90;15.68;;;;;;;13.91;91.80;98776.33;1690652;84;25471;-66
2022/09/15 05:58:40;;;;;;;18.67;15.63;;;;;;;13.97;92.04;98768.63;1688069;84;27373;-66
2022/09/15 06:01:11;;;;;;;20.02;15.45;;;;;;;14.05;92.39;98774.37;1684084;84;25414;-67
2022/09/15 06:03:37;;;;;;;23.30;16.17;;;;;;;14.14;92.60;98779.52;1666585;85;25604;-66
2022/09/15 06:06:06;;;;;;;21.77;15.50;;;;;;;14.20;92.56;98781.55;1636935;85;25626;-67
2022/09/15 06:08:36;;;;;;;26.73;16.15;;;;;;;14.28;92.63;98784.35;1639291;86;25358;-67
2022/09/15 06:11:12;;;;;;;25.80;16.37;;;;;;;14.34;92.63;98782.30;1643215;85;27387;-67
2022/09/15 06:13:39;;;;;;;31.07;16.32;;;;;;;14.42;92.43;98781.01;1687496;84;25778;-66
2022/09/15 06:16:12;;;;;;;25.65;15.65;;;;;;;14.49;92.51;98781.08;1692005;84;25429;-67
2022/09/15 06:18:39;;;;;;;32.28;15.48;;;;;;;14.55;92.45;98789.91;1669099;85;25708;-67
2022/09/15 06:21:14;;;;;;;23.40;14.43;;;;;;;14.62;92.36;98785.15;1667093;85;25651;-67
2022/09/15 06:23:41;;;;;;;26.97;15.15;;;;;;;14.70;92.23;98792.83;1628516;87;27439;-66
2022/09/15 06:26:17;;;;;;;30.27;14.68;;;;;;;14.79;92.65;98793.30;1646594;87;25671;-66
2022/09/15 06:28:50;;;;;;;25.62;14.40;;;;;;;14.89;92.64;98794.56;1643654;87;25615;-67
2022/09/15 06:31:17;;;;;;;27.85;14.38;;;;;;;14.97;92.15;98796.20;1622210;87;25607;-67
2022/09/15 06:33:47;;;;;;;20.15;11.70;;;;;;;15.04;91.63;98794.91;1620662;87;25420;-67
2022/09/15 06:36:15;;;;;;;25.20;12.55;;;;;;;15.10;90.29;98792.61;1619521;87;27347;-67
2022/09/15 06:38:43;;;;;;;26.12;11.03;;;;;;;15.15;90.88;98790.91;1625271;86;25759;-68
2022/09/15 06:41:11;;;;;;;26.05;10.90;;;;;;;15.22;89.94;98791.55;1659782;86;25587;-64
2022/09/15 06:43:39;;;;;;;25.60;11.38;;;;;;;15.31;90.62;98791.44;1659934;86;26176;-65
2022/09/15 06:46:19;;;;;;;24.55;11.05;;;;;;;15.41;90.42;98791.32;1659905;86;25585;-65
2022/09/15 06:48:47;;;;;;;22.37;9.98;;;;;;;15.56;90.61;98803.67;1660033;86;27944;-63
2022/09/15 06:51:15;;;;;;;24.63;9.75;;;;;;;15.67;90.68;98798.50;1659713;85;27021;-64
2022/09/15 06:53:42;;;;;;;21.50;9.43;;;;;;;15.78;88.83;98796.45;1659916;86;25820;-64
2022/09/15 06:56:13;;;;;;;26.10;11.22;;;;;;;15.84;88.39;98799.03;1659588;85;27812;-64
2022/09/15 06:58:41;;;;;;;19.10;9.08;;;;;;;15.95;88.52;98798.49;1659934;86;25466;-65
2022/09/15 07:01:12;;;;;;;17.60;8.65;;;;;;;16.04;87.10;98801.67;1659354;85;27340;-65
2022/09/15 07:03:42;;;;;;;18.52;8.05;;;;;;;16.17;87.54;98809.52;1650447;86;25716;-66
2022/09/15 07:06:14;;;;;;;16.77;8.03;;;;;;;16.33;87.25;98805.91;1662055;84;25819;-66
2022/09/15 07:08:39;;;;;;;;;;;;;;;16.43;85.71;98801.66;1651337;87;25750;-66
2022/09/15 07:11:08;;;;;;;14.00;6.25;;;;;;;16.55;85.15;98816.31;1658619;86;25640;-66
2022/09/15 07:13:34;;;;;;;14.07;5.40;;;;;;;16.66;84.80;98809.52;1644012;85;27419;-65
2022/09/15 07:16:02;;;;;;;15.35;6.00;;;;;;;16.72;83.03;98817.53;1659950;85;25819;-65
2022/09/15 07:18:30;;;;;;;11.38;5.20;;;;;;;16.77;81.43;98823.19;1662265;85;25531;-65
2022/09/15 07:21:11;;;;;;;17.12;6.15;;;;;;;16.84;81.81;98815.06;1661045;85;26351;-66
2022/09/15 07:23:37;;;;;;;15.08;5.37;;;;;;;16.94;82.32;98810.77;1695435;84;25428;-66
2022/09/15 07:26:18;;;;;;;9.53;4.80;;;;;;;17.22;81.71;98812.77;1674949;84;27308;-66
2022/09/15 07:28:49;;;;;;;14.05;5.00;;;;;;;17.42;80.70;98821.92;1692924;84;25644;-64
2022/09/15 07:31:19;;;;;;;12.93;4.55;;;;;;;17.60;79.79;98822.70;1684890;84;25806;-65
2022/09/15 07:33:46;;;;;;;14.15;4.78;;;;;;;17.74;79.04;98819.17;1697290;83;25758;-65
2022/09/15 07:36:13;;;;;;;15.05;4.87;;;;;;;17.92;78.74;98825.42;1694610;84;25458;-67
2022/09/15 07:38:43;;;;;;;27.02;16.52;;;;;;;18.12;78.38;98830.47;1650821;85;27949;-66
2022/09/15 07:41:26;;;;;;;14.90;5.22;;;;;;;18.32;77.96;98827.27;1647790;86;25492;-65
2022/09/15 07:43:56;;;;;;;8.85;3.65;;;;;;;18.50;76.86;98829.94;1654786;85;25659;-65
2022/09/15 07:46:25;;;;;;;12.03;3.98;;;;;;;18.69;75.88;98829.45;1675113;85;25651;-66
2022/09/15 07:48:56;;;;;;;11.30;3.53;;;;;;;18.90;74.76;98837.38;1644464;86;25605;-65
2022/09/15 07:51:24;;;;;;;13.05;4.22;;;;;;;19.33;75.29;98842.59;1683402;83;27406;-65
2022/09/15 07:53:52;;;;;;;7.92;3.65;;;;;;;19.85;74.58;98847.27;1699703;83;25680;-65
2022/09/15 07:56:19;;;;;;;10.68;3.90;;;;;;;20.41;74.73;98839.59;1684272;83;25414;-65
2022/09/15 07:58:47;;;;;;;13.95;3.58;;;;;;;21.07;72.75;98840.33;1700777;84;25643;-65
2022/09/15 08:01:17;;;;;;;9.23;4.22;;;;;;;21.73;71.27;98845.02;1686351;83;25729;-65
2022/09/15 08:03:48;;;;;;;10.18;3.12;;;;;;;22.32;69.10;98841.59;1712030;83;27394;-65
2022/09/15 08:06:18;;;;;;;8.30;2.70;;;;;;;22.77;67.13;98838.12;1687338;83;25595;-65
2022/09/15 08:08:44;;;;;;;;;;;;;;;22.88;64.70;98846.91;1685453;83;26301;-66
2022/09/15 08:11:16;;;;;;;7.70;3.10;;;;;;;23.20;62.82;98851.72;1701527;83;26318;-65
2022/09/15 08:13:43;;;;;;;6.40;2.72;;;;;;;23.67;61.96;98858.89;1713406;83;25697;-66
2022/09/15 08:16:14;;;;;;;6.97;2.52;;;;;;;24.19;61.23;98858.54;1696120;84;27350;-66
2022/09/15 08:18:42;;;;;;;7.17;2.70;;;;;;;24.54;60.42;98849.89;1700645;83;25663;-65
2022/09/15 08:21:12;;;;;;;6.90;2.85;;;;;;;24.79;58.54;98851.13;1646645;85;26369;-68
2022/09/15 08:23:39;;;;;;;8.75;3.12;;;;;;;24.97;57.80;98853.37;1652162;85;25621;-68
2022/09/15 08:26:09;;;;;;;10.98;3.37;;;;;;;25.33;57.74;98850.27;1686697;84;25472;-66
2022/09/15 08:28:37;;;;;;;5.08;2.42;;;;;;;25.80;56.36;98850.13;1674632;85;27356;-67
2022/09/15 08:31:07;;;;;;;3.15;1.98;;;;;;;26.12;54.86;98843.33;1655812;85;25684;-67
2022/09/15 08:33:34;;;;;;;9.80;2.33;;;;;;;26.24;53.29;98854.98;1711581;83;25701;-67
2022/09/15 08:36:04;;;;;;;6.20;1.95;;;;;;;26.22;51.91;98854.64;1688488;83;25690;-68
2022/09/15 08:38:31;;;;;;;5.12;2.27;;;;;;;26.43;51.23;98848.33;1699322;84;25823;-66
2022/09/15 08:41:02;;;;;;;6.37;2.83;;;;;;;26.66;50.41;98846.33;1698631;84;27338;-66
2022/09/15 08:43:34;;;;;;;5.55;2.75;;;;;;;27.03;50.32;98842.34;1691843;83;25646;-66
2022/09/15 08:46:05;;;;;;;6.85;2.52;;;;;;;27.41;48.79;98842.63;1696438;83;25670;-67
2022/09/15 08:51:55;;;;;;;6.97;2.37;;;;;;;27.84;46.80;98833.11;1569935;90;25751;-67
2022/09/15 08:54:26;;;;;;;8.98;2.90;;;;;;;28.08;45.92;98838.88;1570243;90;28501;-67
2022/09/15 08:56:55;;;;;;;4.85;1.70;;;;;;;28.31;45.31;98840.98;1569982;91;25821;-66
2022/09/15 08:59:26;;;;;;;7.25;2.17;;;;;;;28.37;43.27;98837.61;1569947;90;25802;-66
2022/09/15 09:02:33;;;;;;;3.95;1.65;;;;;;;28.28;42.42;98841.94;1520922;93;25789;-67
2022/09/15 09:05:16;;;;;;;3.77;1.95;;;;;;;28.28;42.40;98837.77;1495373;95;25839;-67
2022/09/15 09:08:04;;;;;;;5.37;2.02;;;;;;;28.27;43.13;98845.94;1494777;95;28457;-65
2022/09/15 09:10:56;;;;;;;6.33;2.15;;;;;;;28.62;43.18;98847.59;1495019;94;25866;-65
2022/09/15 09:13:37;;;;;;;4.85;1.95;;;;;;;28.73;41.99;98845.73;1458423;98;25825;-65
2022/09/15 09:16:21;;;;;;;3.60;1.90;;;;;;;28.40;41.41;98842.20;1452534;98;25776;-65
2022/09/15 09:19:22;;;;;;;3.02;1.57;;;;;;;28.21;41.89;98849.19;1471726;97;25665;-66
2022/09/15 09:21:56;;;;;;;8.15;1.75;;;;;;;28.28;42.84;98850.28;1470099;97;27430;-65
2022/09/15 09:24:40;;;;;;;4.90;2.00;;;;;;;28.56;42.04;98843.30;1471190;97;25756;-64
2022/09/15 09:27:14;;;;;;;5.53;1.95;;;;;;;28.54;41.71;98844.95;1467984;96;25539;-64
2022/09/15 09:29:48;;;;;;;9.45;3.90;;;;;;;28.53;41.38;98847.60;1509156;94;25718;-64
2022/09/15 09:32:18;;;;;;;4.22;1.67;;;;;;;28.72;42.09;98851.89;1502406;93;25886;-64
2022/09/15 09:35:01;;;;;;;5.72;2.27;;;;;;;28.67;40.10;98844.19;1515267;93;27421;-65
2022/09/15 09:37:28;;;;;;;4.17;1.90;;;;;;;28.43;40.18;98844.83;1497251;93;25766;-65
2022/09/15 09:39:54;;;;;;;5.80;1.95;;;;;;;28.24;39.59;98841.31;1516353;93;25782;-65
2022/09/15 09:42:26;;;;;;;4.05;2.02;;;;;;;27.94;39.68;98844.41;1540567;93;25857;-65
2022/09/15 09:44:52;;;;;;;3.05;1.60;;;;;;;27.89;39.67;98848.56;1540635;93;25631;-64
2022/09/15 09:47:19;;;;;;;7.08;1.87;;;;;;;27.78;39.26;98843.31;1540743;93;27328;-64
2022/09/15 09:49:48;;;;;;;5.08;2.30;;;;;;;27.48;39.52;98848.50;1568697;87;25785;-65
2022/09/15 09:52:38;;;;;;;5.87;1.62;;;;;;;27.52;40.49;98838.80;1639942;87;25771;-65
2022/09/15 09:55:26;;;;;;;4.55;1.70;;;;;;;27.73;40.38;98823.23;1625849;87;25672;-64
2022/09/15 09:57:54;;;;;;;3.08;1.40;;;;;;;27.68;39.44;98817.53;1637580;86;25655;-64
2022/09/15 10:00:39;;;;;;;2.33;1.30;;;;;;;27.45;39.03;98825.81;1640150;87;27418;-64
2022/09/15 10:03:18;;;;;;;5.05;1.40;;;;;;;27.46;39.97;98832.92;1640112;87;25790;-65
2022/09/15 10:06:06;;;;;;;5.95;1.80;;;;;;;27.23;38.84;98825.92;1638870;86;25707;-64
2022/09/15 10:08:34;;;;;;;4.22;1.30;;;;;;;27.19;38.94;98831.00;1639989;87;25629;-64
2022/09/15 10:11:09;;;;;;;4.72;1.60;;;;;;;27.26;38.99;98831.92;1620753;87;25513;-65
2022/09/15 10:13:41;;;;;;;3.40;1.65;;;;;;;26.93;36.94;98832.44;1611004;87;27531;-64
2022/09/15 10:16:07;;;;;;;6.35;1.47;;;;;;;26.12;37.83;98823.34;1627496;87;26509;-64
2022/09/15 10:18:37;;;;;;;4.37;1.30;;;;;;;25.94;38.96;98815.62;1615677;87;25440;-68
2022/09/15 10:21:08;;;;;;;2.70;1.37;;;;;;;26.15;40.02;98821.66;1621739;87;25721;-68
2022/09/15 10:23:35;;;;;;;5.58;1.67;;;;;;;26.32;38.73;98811.14;1637990;87;25844;-68
2022/09/15 10:26:25;;;;;;;3.80;1.30;;;;;;;25.95;37.79;98821.95;1638544;87;27335;-69
2022/09/15 10:29:14;;;;;;;1.70;1.40;;;;;;;25.43;38.23;98812.41;1649254;86;25732;-67
2022/09/15 10:31:43;;;;;;;4.62;1.50;;;;;;;24.92;38.82;98833.17;1578340;89;25734;-67
2022/09/15 10:34:31;;;;;;;5.08;1.95;;;;;;;24.49;39.02;98821.39;1562692;90;26291;-67
2022/09/15 10:37:21;;;;;;;7.17;2.50;;;;;;;24.19;39.68;98823.40;1583529;89;25743;-67
2022/09/15 10:39:54;;;;;;;5.60;2.27;;;;;;;23.87;39.94;98817.38;1581160;89;27916;-68
2022/09/15 10:42:41;;;;;;;4.75;1.85;;;;;;;23.76;41.07;98826.53;1576370;89;25923;-68
2022/09/15 10:45:19;;;;;;;5.33;1.90;;;;;;;23.65;41.14;98829.55;1606127;89;25686;-69
2022/09/15 10:47:56;;;;;;;6.12;1.50;;;;;;;23.41;41.56;98831.73;1600336;87;25694;-68
2022/09/15 10:50:48;;;;;;;3.20;1.82;;;;;;;23.24;42.13;98826.81;1580561;89;25747;-69
2022/09/15 10:53:59;;;;;;;7.22;1.95;;;;;;;23.09;42.60;98827.16;1606300;89;27408;-67
2022/09/15 10:56:42;;;;;;;3.37;1.95;;;;;;;22.93;42.80;98818.25;1576014;89;26349;-67
2022/09/15 10:59:26;;;;;;;7.50;1.87;;;;;;;22.74;42.97;98825.34;1563584;90;25901;-67
2022/09/15 11:02:03;;;;;;;3.12;1.70;;;;;;;22.51;43.29;98824.09;1571139;89;25639;-68
2022/09/15 11:04:47;;;;;;;5.03;1.45;;;;;;;22.43;43.78;98830.95;1550336;91;25700;-68
2022/09/15 11:07:30;;;;;;;5.17;1.90;;;;;;;22.34;43.49;98837.80;1570880;89;27511;-67
2022/09/15 11:10:28;;;;;;;6.83;2.35;;;;;;;22.13;43.37;98831.30;1552082;90;25889;-70
2022/09/15 11:13:08;;;;;;;3.45;1.55;;;;;;;21.85;43.63;98827.89;1570843;89;25920;-69
2022/09/15 11:15:49;;;;;;;5.08;1.57;;;;;;;21.70;44.19;98824.61;1550220;90;25787;-67
2022/09/15 11:18:41;;;;;;;4.10;1.90;;;;;;;21.60;44.65;98825.57;1550564;91;25479;-69
2022/09/15 11:21:28;;;;;;;6.72;2.20;;;;;;;21.50;44.88;98830.66;1562794;89;27414;-69
2022/09/15 11:24:36;;;;;;;6.40;1.75;;;;;;;21.34;44.98;98823.81;1550344;90;25906;-69
2022/09/15 11:27:26;;;;;;;11.03;2.20;;;;;;;21.18;45.31;98817.59;1571072;89;25834;-68
2022/09/15 11:30:15;;;;;;;6.72;2.20;;;;;;;21.10;45.66;98826.36;1546651;90;25676;-70
2022/09/15 11:33:01;;;;;;;6.28;2.02;;;;;;;20.87;45.33;98831.39;1563649;90;25445;-69
2022/09/15 11:35:48;;;;;;;4.85;1.87;;;;;;;20.73;45.75;98837.67;1569149;90;27422;-68
2022/09/15 11:38:41;;;;;;;7.85;2.12;;;;;;;20.65;46.42;98835.03;1568221;90;25656;-67
2022/09/15 11:41:40;;;;;;;4.17;2.00;;;;;;;20.65;46.70;98831.48;1603238;89;25506;-68
2022/09/15 11:44:19;;;;;;;;;;;;;;;20.45;46.69;98833.48;1613147;88;25821;-68
2022/09/15 11:47:24;;;;;;;5.92;2.83;;;;;;;20.21;46.62;98840.83;1584565;89;25747;-67
2022/09/15 11:50:22;;;;;;;4.25;2.05;;;;;;;20.02;47.29;98833.95;1605566;87;27432;-69
2022/09/15 11:53:15;;;;;;;4.55;1.72;;;;;;;19.92;47.86;98840.33;1563803;90;25519;-69
2022/09/15 11:56:04;;;;;;;6.67;2.08;;;;;;;20.01;48.48;98831.03;1584388;90;25778;-68
2022/09/15 11:58:51;;;;;;;8.43;2.47;;;;;;;20.09;48.55;98831.15;1603750;87;26356;-68